Time;durP1;ratioP1;P1;durP2;ratioP2;P2;SDS_P1;SDS_P2;PMS_P1;PMS_P2;Temp;Humidity;BMP_temperature;BMP_pressure;BME280_temperature;BME280_humidity;BME280_pressure;Samples;Min_cycle;Max_cycle;Signal;HPM_P1;HPM_P2
2023/06/03 00:00:18;;;;;;;6.35;1.50;;;;;;;8.16;55.78;101745.03;5032748;28;20120;-62
2023/06/03 00:02:47;;;;;;;2.90;1.48;;;;;;;8.18;55.76;101737.72;5032276;28;20132;-62
2023/06/03 00:05:17;;;;;;;3.05;1.10;;;;;;;8.27;55.74;101733.50;5032123;28;20906;-64
2023/06/03 00:07:44;;;;;;;3.05;1.67;;;;;;;8.13;55.69;101731.91;5032671;28;20060;-62
2023/06/03 00:10:11;;;;;;;3.08;1.52;;;;;;;8.08;55.61;101742.09;5032748;28;20551;-63
2023/06/03 00:12:37;;;;;;;7.05;1.40;;;;;;;7.94;55.90;101737.81;5031734;28;20436;-62
2023/06/03 00:15:04;;;;;;;2.90;1.27;;;;;;;8.04;55.85;101730.78;5032150;28;20159;-61
2023/06/03 00:17:31;;;;;;;5.07;1.58;;;;;;;8.06;56.19;101742.22;5030550;28;20099;-64
2023/06/03 00:20:06;;;;;;;5.07;1.80;;;;;;;8.10;55.88;101746.34;5032144;28;20049;-62
2023/06/03 00:22:35;;;;;;;3.05;1.25;;;;;;;7.85;56.48;101738.53;5030740;28;20053;-62
2023/06/03 00:25:02;;;;;;;5.32;1.60;;;;;;;7.90;56.53;101739.03;5032760;28;20467;-62
2023/06/03 00:27:29;;;;;;;2.80;1.25;;;;;;;8.03;56.62;101734.44;5032529;28;20048;-62
2023/06/03 00:29:55;;;;;;;3.42;1.08;;;;;;;7.86;56.85;101743.75;5032490;28;20041;-65
2023/06/03 00:32:22;;;;;;;2.00;1.10;;;;;;;7.94;57.28;101743.16;5031897;28;20049;-62
2023/06/03 00:34:48;;;;;;;4.82;1.40;;;;;;;8.04;57.08;101730.78;5032919;28;20053;-62
2023/06/03 00:37:15;;;;;;;7.55;1.55;;;;;;;7.87;57.41;101741.91;5032668;28;20045;-62
2023/06/03 00:39:41;;;;;;;3.92;1.40;;;;;;;8.00;57.57;101739.16;5032072;28;20473;-62
2023/06/03 00:42:08;;;;;;;2.97;1.10;;;;;;;7.95;57.33;101747.53;5032153;28;20049;-63
2023/06/03 00:44:34;;;;;;;4.60;1.45;;;;;;;7.84;57.92;101744.81;5031400;28;20463;-62
2023/06/03 00:47:02;;;;;;;7.70;1.25;;;;;;;7.78;58.07;101742.63;5032182;28;20512;-62
2023/06/03 00:49:29;;;;;;;8.70;1.48;;;;;;;7.88;58.27;101738.28;5031863;28;20055;-62
2023/06/03 00:51:56;;;;;;;8.02;1.45;;;;;;;7.75;58.64;101742.84;5031190;28;20505;-63
2023/06/03 00:54:23;;;;;;;2.70;1.10;;;;;;;7.71;58.84;101742.22;5031117;28;20540;-62
2023/06/03 00:56:49;;;;;;;4.20;1.40;;;;;;;7.62;59.26;101743.75;5029338;28;20085;-63
2023/06/03 00:59:17;;;;;;;2.50;1.10;;;;;;;7.66;59.17;101747.91;5031470;28;20057;-62
2023/06/03 01:01:44;;;;;;;4.20;1.67;;;;;;;7.70;59.65;101758.34;5031019;28;20049;-62
2023/06/03 01:04:16;;;;;;;2.55;1.42;;;;;;;7.67;59.73;101751.41;5030684;28;20084;-62
2023/06/03 01:07:33;;;;;;;5.22;1.50;;;;;;;7.73;59.48;101750.09;5030146;28;20167;-62
2023/06/03 01:10:24;;;;;;;3.50;1.40;;;;;;;7.66;59.57;101742.56;5028949;28;20520;-62
2023/06/03 01:13:26;;;;;;;5.57;1.40;;;;;;;7.49;60.52;101737.63;5029973;28;20076;-62
2023/06/03 01:15:55;;;;;;;5.97;1.45;;;;;;;7.53;59.99;101744.44;5025183;28;20057;-64
2023/06/03 01:18:22;;;;;;;4.05;1.40;;;;;;;7.46;60.94;101743.19;5029515;28;20046;-62
2023/06/03 01:20:50;;;;;;;4.63;1.58;;;;;;;7.48;60.22;101745.78;5030886;28;20562;-62
2023/06/03 01:23:23;;;;;;;3.80;1.67;;;;;;;7.46;60.75;101756.56;5020441;28;20046;-61
2023/06/03 01:25:56;;;;;;;3.67;1.38;;;;;;;7.57;60.48;101747.72;5008080;28;20045;-62
2023/06/03 01:28:24;;;;;;;7.93;1.63;;;;;;;7.56;60.16;101754.03;5010232;28;20042;-62
2023/06/03 01:30:51;;;;;;;3.30;1.30;;;;;;;7.26;60.61;101757.22;5008624;28;20050;-62
2023/06/03 01:33:19;;;;;;;4.35;1.15;;;;;;;7.21;60.97;101757.53;5008201;28;20513;-64
2023/06/03 01:35:51;;;;;;;4.78;1.00;;;;;;;7.17;61.34;101750.72;5009816;28;20080;-62
2023/06/03 01:38:18;;;;;;;8.80;1.55;;;;;;;7.24;60.97;101756.44;5008227;28;20084;-65
2023/06/03 01:40:46;;;;;;;4.22;1.40;;;;;;;7.27;60.87;101756.22;5009334;28;20046;-62
2023/06/03 01:43:12;;;;;;;6.80;1.63;;;;;;;7.31;60.90;101755.03;5007299;28;20046;-62
2023/06/03 01:45:39;;;;;;;4.63;1.60;;;;;;;7.24;60.37;101756.44;5008999;28;20046;-63
2023/06/03 01:48:06;;;;;;;2.80;1.38;;;;;;;7.15;60.67;101765.97;5007794;28;20458;-62
2023/06/03 01:50:32;;;;;;;6.35;1.50;;;;;;;7.50;60.31;101751.84;5007633;28;20046;-63
2023/06/03 01:52:59;;;;;;;4.07;1.70;;;;;;;7.44;60.02;101755.84;5007738;28;20057;-62
2023/06/03 01:55:25;;;;;;;2.60;1.33;;;;;;;7.40;59.62;101754.38;5005579;28;20141;-63
2023/06/03 01:57:52;;;;;;;2.05;1.40;;;;;;;7.14;59.77;101757.13;5011337;28;20049;-63
2023/06/03 02:00:19;;;;;;;2.45;1.23;;;;;;;7.16;59.55;101759.69;5010030;28;20105;-64
2023/06/03 02:02:46;;;;;;;4.15;1.20;;;;;;;7.06;59.38;101748.84;5022734;28;20049;-63
2023/06/03 02:05:13;;;;;;;3.03;1.15;;;;;;;7.22;59.34;101753.03;5026433;28;20053;-62
2023/06/03 02:07:39;;;;;;;2.70;1.20;;;;;;;7.12;59.23;101756.41;5025646;28;20047;-62
2023/06/03 02:10:06;;;;;;;3.17;1.33;;;;;;;7.19;59.15;101759.47;5028538;28;20512;-64
2023/06/03 02:12:33;;;;;;;4.03;1.23;;;;;;;7.35;59.04;101761.84;5026219;28;20052;-64
2023/06/03 02:15:00;;;;;;;3.90;1.10;;;;;;;7.42;58.59;101761.28;5027388;28;20115;-63
2023/06/03 02:17:26;;;;;;;2.97;1.20;;;;;;;7.10;58.96;101755.66;5028380;28;20463;-63
2023/06/03 02:19:54;;;;;;;3.45;1.20;;;;;;;7.03;59.40;101759.72;5025757;28;20087;-63
2023/06/03 02:22:22;;;;;;;5.88;1.40;;;;;;;7.23;59.08;101757.44;5030266;28;20049;-63
2023/06/03 02:24:49;;;;;;;2.20;1.27;;;;;;;7.16;59.19;101765.03;5031307;28;20132;-63
2023/06/03 02:27:19;;;;;;;1.75;1.15;;;;;;;7.18;58.96;101765.75;5032950;28;20041;-64
2023/06/03 02:29:50;;;;;;;3.08;1.42;;;;;;;6.96;58.84;101766.47;5032416;28;20057;-63
2023/06/03 02:32:19;;;;;;;2.65;1.00;;;;;;;7.10;58.44;101765.47;5032426;28;20068;-62
2023/06/03 02:34:47;;;;;;;5.03;1.13;;;;;;;7.02;58.62;101763.38;5031375;28;20054;-61
2023/06/03 02:37:16;;;;;;;3.67;1.08;;;;;;;6.94;58.98;101765.72;5032961;28;20493;-61
2023/06/03 02:39:43;;;;;;;4.32;1.45;;;;;;;7.18;58.59;101769.28;5031701;28;20481;-62
2023/06/03 02:42:10;;;;;;;4.15;1.40;;;;;;;6.96;58.76;101769.16;5031773;28;20483;-62
2023/06/03 02:44:37;;;;;;;9.95;1.20;;;;;;;6.93;58.86;101764.88;5031996;28;20045;-61
2023/06/03 02:47:04;;;;;;;4.68;1.30;;;;;;;6.98;58.81;101766.34;5032511;28;20073;-62
2023/06/03 02:49:31;;;;;;;1.92;0.90;;;;;;;6.97;58.76;101765.50;5031345;28;20038;-62
2023/06/03 02:51:58;;;;;;;1.73;1.00;;;;;;;6.71;59.03;101765.56;5031976;28;20077;-62
2023/06/03 02:54:25;;;;;;;2.15;1.00;;;;;;;6.83;59.07;101768.31;5031394;28;20512;-62
2023/06/03 02:56:52;;;;;;;4.45;0.95;;;;;;;6.88;58.59;101771.53;5031027;28;20504;-62
2023/06/03 02:59:18;;;;;;;3.78;1.25;;;;;;;6.78;58.50;101765.16;5031288;28;20099;-64
2023/06/03 03:01:45;;;;;;;3.40;1.27;;;;;;;6.76;58.50;101765.25;5032443;28;20124;-62
2023/06/03 03:04:12;;;;;;;2.28;0.80;;;;;;;6.73;58.28;101768.13;5031776;28;20512;-61
2023/06/03 03:06:40;;;;;;;2.80;1.17;;;;;;;6.92;58.17;101765.84;5031850;28;20056;-62
2023/06/03 03:09:07;;;;;;;3.38;0.93;;;;;;;6.74;58.31;101764.50;5032734;28;20230;-62
2023/06/03 03:11:34;;;;;;;3.53;1.00;;;;;;;6.67;58.29;101764.09;5028575;28;20492;-62
2023/06/03 03:14:02;;;;;;;3.72;1.20;;;;;;;6.91;57.84;101764.16;5030543;28;20077;-61
2023/06/03 03:16:28;;;;;;;3.60;0.90;;;;;;;6.70;57.73;101763.00;5030012;28;20077;-63
2023/06/03 03:18:55;;;;;;;5.47;0.98;;;;;;;6.67;57.90;101763.25;5030531;28;20053;-61
2023/06/03 03:21:22;;;;;;;2.15;1.00;;;;;;;6.69;58.02;101763.97;5031439;28;20053;-62
2023/06/03 03:23:48;;;;;;;6.70;1.10;;;;;;;6.77;58.00;101772.25;5031913;28;20500;-63
2023/06/03 03:26:21;;;;;;;2.08;1.10;;;;;;;6.60;58.17;101762.81;5032153;28;20045;-62
2023/06/03 03:28:48;;;;;;;3.92;1.23;;;;;;;6.56;57.87;101769.31;5031522;28;20049;-62
2023/06/03 03:31:14;;;;;;;3.72;1.10;;;;;;;6.71;57.95;101770.91;5031360;28;20504;-63
2023/06/03 03:33:41;;;;;;;1.42;0.80;;;;;;;6.68;57.79;101775.63;5030515;28;20053;-63
2023/06/03 03:36:20;;;;;;;5.93;1.00;;;;;;;6.85;57.75;101774.41;5029753;28;20930;-62
2023/06/03 03:38:51;;;;;;;3.58;1.45;;;;;;;6.62;58.15;101774.22;5031096;28;20076;-62
2023/06/03 03:41:18;;;;;;;4.32;1.30;;;;;;;6.82;57.88;101771.97;5031386;28;20511;-62
2023/06/03 03:43:45;;;;;;;1.40;1.00;;;;;;;6.78;58.15;101782.00;5030524;28;20052;-62
2023/06/03 03:46:11;;;;;;;3.90;1.40;;;;;;;6.78;58.08;101778.47;5029863;28;20091;-62
2023/06/03 03:48:38;;;;;;;4.03;1.30;;;;;;;6.77;58.35;101784.75;5030475;28;20445;-62
2023/06/03 03:51:05;;;;;;;2.42;1.00;;;;;;;6.69;58.69;101772.81;5029826;28;20053;-62
2023/06/03 03:53:35;;;;;;;1.45;0.98;;;;;;;6.64;58.98;101782.97;5031659;28;20483;-63
2023/06/03 03:56:02;;;;;;;2.70;1.00;;;;;;;6.74;58.72;101775.19;5030429;28;20504;-62
2023/06/03 03:58:40;;;;;;;1.90;1.10;;;;;;;6.90;58.66;101786.44;5030368;28;20500;-61
2023/06/03 04:01:22;;;;;;;1.95;1.05;;;;;;;6.65;59.16;101782.00;5029901;28;20482;-63
2023/06/03 04:03:51;;;;;;;3.60;1.35;;;;;;;6.88;58.94;101783.03;5028789;28;20046;-63
2023/06/03 04:06:37;;;;;;;2.67;1.20;;;;;;;6.72;59.26;101795.75;5031212;28;20053;-62
2023/06/03 04:09:05;;;;;;;2.17;1.02;;;;;;;6.64;59.81;101796.31;5030959;28;20049;-62
2023/06/03 04:11:37;;;;;;;3.53;1.33;;;;;;;6.74;59.72;101792.97;5028449;28;20468;-63
2023/06/03 04:14:08;;;;;;;3.70;1.40;;;;;;;6.76;60.04;101799.06;5030536;28;20053;-62
2023/06/03 04:16:37;;;;;;;2.35;1.30;;;;;;;6.59;60.72;101800.25;5027632;28;20041;-64
2023/06/03 04:19:06;;;;;;;3.10;1.10;;;;;;;6.73;60.58;101794.78;5029712;28;20053;-62
2023/06/03 04:21:38;;;;;;;4.45;1.40;;;;;;;6.65;60.77;101792.66;5030677;28;20076;-62
2023/06/03 04:24:05;;;;;;;;;;;;;;;6.56;61.32;101797.78;5031840;28;20045;-62
2023/06/03 04:26:32;;;;;;;4.00;1.30;;;;;;;6.65;61.78;101800.66;5030108;28;20432;-62
2023/06/03 04:28:58;;;;;;;3.17;1.10;;;;;;;6.63;61.84;101805.28;5030592;28;20049;-61
2023/06/03 04:31:25;;;;;;;5.18;1.30;;;;;;;6.44;62.41;101811.03;5028631;28;20463;-63
2023/06/03 04:33:51;;;;;;;5.32;1.25;;;;;;;6.38;63.65;101815.94;5028853;28;20052;-63
2023/06/03 04:36:18;;;;;;;3.08;1.30;;;;;;;6.42;63.66;101804.94;5032206;28;20049;-62
2023/06/03 04:38:45;;;;;;;4.07;1.45;;;;;;;6.40;64.26;101809.53;5029799;28;20072;-62
2023/06/03 04:41:14;;;;;;;12.30;1.35;;;;;;;6.32;65.04;101817.22;5030070;28;20460;-62
2023/06/03 04:43:43;;;;;;;5.50;1.33;;;;;;;6.41;64.96;101802.41;5029013;28;20446;-62
2023/06/03 04:46:10;;;;;;;5.97;1.38;;;;;;;6.56;65.08;101803.97;5029019;28;20489;-62
2023/06/03 04:48:37;;;;;;;7.82;1.92;;;;;;;6.60;64.69;101797.50;5029015;28;20482;-62
2023/06/03 04:51:07;;;;;;;5.78;1.52;;;;;;;6.75;64.80;101800.88;5029022;28;20046;-62
2023/06/03 04:53:36;;;;;;;5.23;1.60;;;;;;;6.68;65.18;101808.47;5027959;28;20045;-62
2023/06/03 04:56:05;;;;;;;5.72;1.55;;;;;;;6.88;64.48;101808.88;5029547;28;20053;-63
2023/06/03 04:58:32;;;;;;;6.97;1.55;;;;;;;6.86;64.35;101806.28;5026769;28;20045;-62
2023/06/03 05:00:59;;;;;;;8.63;1.42;;;;;;;6.79;65.08;101799.69;5026522;28;20064;-62
2023/06/03 05:03:26;;;;;;;2.78;1.42;;;;;;;6.67;64.55;101803.25;5009815;28;20049;-63
2023/06/03 05:05:53;;;;;;;3.60;1.48;;;;;;;6.86;65.31;101805.44;5010531;28;20060;-62
2023/06/03 05:08:20;;;;;;;6.05;1.50;;;;;;;6.84;65.33;101807.34;5007718;28;20122;-62
2023/06/03 05:10:46;;;;;;;4.30;1.40;;;;;;;7.03;65.01;101806.91;5008689;28;20053;-61
2023/06/03 05:13:13;;;;;;;6.25;1.40;;;;;;;7.09;64.54;101801.97;5011505;28;20473;-61
2023/06/03 05:15:40;;;;;;;5.80;1.50;;;;;;;7.23;64.88;101805.47;5006822;28;20084;-62
2023/06/03 05:18:06;;;;;;;8.57;2.30;;;;;;;7.35;64.31;101805.41;5009015;28;20104;-63
2023/06/03 05:20:33;;;;;;;8.00;1.45;;;;;;;7.14;64.23;101810.50;5009462;28;20046;-63
2023/06/03 05:23:00;;;;;;;10.32;1.67;;;;;;;7.03;65.13;101807.75;5008958;28;20128;-62
2023/06/03 05:25:27;;;;;;;3.47;1.42;;;;;;;7.16;64.97;101803.25;5006974;28;20080;-63
2023/06/03 05:27:53;;;;;;;5.55;1.52;;;;;;;7.00;65.54;101802.63;5009107;28;20050;-62
2023/06/03 05:30:30;;;;;;;2.90;1.40;;;;;;;7.16;65.37;101794.38;5008057;28;20042;-62
2023/06/03 05:32:56;;;;;;;3.30;1.25;;;;;;;7.38;65.26;101796.31;5008729;28;20136;-61
2023/06/03 05:35:23;;;;;;;7.68;1.40;;;;;;;7.24;65.01;101791.16;5008766;28;20045;-62
2023/06/03 05:37:49;;;;;;;5.60;2.15;;;;;;;7.52;64.86;101798.81;5009444;28;20133;-62
2023/06/03 05:40:16;;;;;;;5.15;1.50;;;;;;;7.42;64.58;101800.47;5009956;28;20048;-62
2023/06/03 05:42:44;;;;;;;3.83;1.60;;;;;;;7.70;63.93;101801.09;5009128;28;20425;-61
2023/06/03 05:45:10;;;;;;;4.68;1.60;;;;;;;7.73;64.20;101800.84;5010865;28;20092;-62
2023/06/03 05:47:37;;;;;;;11.02;2.42;;;;;;;7.78;63.76;101804.91;5009150;28;20041;-63
2023/06/03 05:50:04;;;;;;;5.38;2.00;;;;;;;7.74;64.38;101799.88;5009796;28;20054;-62
2023/06/03 05:52:31;;;;;;;4.88;1.58;;;;;;;7.86;63.81;101799.84;5008359;28;20064;-61
2023/06/03 05:54:58;;;;;;;2.40;1.45;;;;;;;7.97;64.11;101796.38;5010902;28;20077;-62
2023/06/03 05:57:24;;;;;;;5.85;1.55;;;;;;;7.95;62.96;101797.44;5009205;28;20096;-62
2023/06/03 05:59:51;;;;;;;18.30;1.80;;;;;;;7.60;63.46;101800.91;5010074;28;20054;-62
2023/06/03 06:02:21;;;;;;;6.32;2.00;;;;;;;7.99;63.53;101802.44;5023973;28;20046;-62
2023/06/03 06:04:48;;;;;;;8.60;2.58;;;;;;;8.28;63.38;101797.53;5030433;28;20042;-63
2023/06/03 06:07:16;;;;;;;5.47;1.80;;;;;;;8.31;62.60;101796.44;5026420;28;20378;-62
2023/06/03 06:09:42;;;;;;;7.35;1.92;;;;;;;8.33;64.02;101795.38;5009377;28;20473;-58
2023/06/03 06:12:09;;;;;;;7.55;2.22;;;;;;;8.08;66.86;101801.72;5014277;28;20057;-60
2023/06/03 06:14:37;;;;;;;3.55;1.70;;;;;;;8.35;66.45;101805.94;5008758;28;20050;-60
2023/06/03 06:17:04;;;;;;;8.15;2.40;;;;;;;8.54;72.12;101798.19;5010761;28;20041;-60
2023/06/03 06:19:30;;;;;;;8.30;1.80;;;;;;;8.82;76.45;101802.19;5009985;28;20050;-59
2023/06/03 06:21:57;;;;;;;7.43;2.05;;;;;;;9.05;79.46;101794.97;5010026;28;20081;-59
2023/06/03 06:24:23;;;;;;;9.70;2.28;;;;;;;8.68;68.38;101798.88;5010433;28;20049;-60
2023/06/03 06:26:51;;;;;;;5.82;1.83;;;;;;;8.61;67.29;101794.03;5009864;28;20172;-58
2023/06/03 06:29:17;;;;;;;10.48;1.65;;;;;;;8.87;67.47;101799.13;5011360;28;20042;-59
2023/06/03 06:31:44;;;;;;;6.25;2.00;;;;;;;9.26;68.50;101795.09;5010667;28;20081;-59
2023/06/03 06:34:17;;;;;;;12.60;1.67;;;;;;;9.36;63.89;101799.69;5010256;28;20050;-60
2023/06/03 06:36:49;;;;;;;7.15;2.10;;;;;;;9.39;62.04;101805.66;5009764;28;20104;-60
2023/06/03 06:39:34;;;;;;;9.40;2.10;;;;;;;9.27;60.38;101794.13;5010328;28;20121;-60
2023/06/03 06:42:17;;;;;;;5.07;1.55;;;;;;;9.03;59.32;101794.25;5009422;28;20505;-61
2023/06/03 06:44:46;;;;;;;4.55;1.52;;;;;;;9.34;59.16;101790.97;5009285;28;20588;-59
2023/06/03 06:47:20;;;;;;;8.02;1.70;;;;;;;9.59;58.49;101795.13;5009629;28;20049;-59
2023/06/03 06:49:48;;;;;;;8.27;1.85;;;;;;;9.53;56.74;101791.97;5010267;28;20398;-59
2023/06/03 06:52:15;;;;;;;4.82;1.48;;;;;;;9.55;55.41;101789.19;5009983;28;20081;-59
2023/06/03 06:54:42;;;;;;;10.90;2.50;;;;;;;10.11;55.94;101785.38;5009948;28;20049;-60
2023/06/03 06:57:08;;;;;;;7.63;1.65;;;;;;;10.15;55.06;101797.53;5010314;28;20045;-59
2023/06/03 06:59:35;;;;;;;7.82;1.90;;;;;;;10.41;55.25;101797.94;5009185;28;20042;-59
2023/06/03 07:02:01;;;;;;;10.63;1.60;;;;;;;10.52;53.54;101789.88;5009895;28;20104;-59
2023/06/03 07:04:28;;;;;;;13.77;2.67;;;;;;;10.25;53.50;101796.59;5010077;28;20045;-58
2023/06/03 07:06:55;;;;;;;9.98;1.70;;;;;;;10.21;53.02;101791.66;4971845;28;20059;-60
2023/06/03 07:09:21;;;;;;;4.13;1.88;;;;;;;10.43;52.18;101796.00;4973472;28;20085;-58
2023/06/03 07:11:48;;;;;;;7.28;1.55;;;;;;;10.53;51.91;101794.25;4973209;28;20461;-58
2023/06/03 07:14:14;;;;;;;11.43;1.95;;;;;;;10.76;51.42;101797.63;4975629;28;20050;-58
2023/06/03 07:16:41;;;;;;;5.80;2.00;;;;;;;11.53;51.01;101793.41;4974760;28;20515;-59
2023/06/03 07:19:08;;;;;;;5.07;2.00;;;;;;;11.67;49.72;101795.72;4974864;28;20549;-59
2023/06/03 07:21:35;;;;;;;8.48;2.00;;;;;;;12.14;49.04;101790.41;4972855;28;20042;-60
2023/06/03 07:24:02;;;;;;;5.13;1.52;;;;;;;12.25;47.70;101787.59;4973285;28;20145;-61
2023/06/03 07:26:32;;;;;;;6.88;2.13;;;;;;;12.74;47.99;101787.44;4972130;28;20043;-59
2023/06/03 07:28:59;;;;;;;6.30;2.30;;;;;;;12.33;47.31;101789.53;4972787;28;20046;-59
2023/06/03 07:31:26;;;;;;;6.90;1.80;;;;;;;13.39;46.87;101792.72;4973011;28;20081;-59
2023/06/03 07:33:55;;;;;;;8.15;1.88;;;;;;;13.90;44.80;101797.47;4974280;28;20050;-59
2023/06/03 07:36:26;;;;;;;7.75;2.10;;;;;;;14.09;43.49;101788.34;4974571;28;20054;-59
2023/06/03 07:39:14;;;;;;;7.05;1.88;;;;;;;14.52;43.11;101784.75;4973777;28;20445;-61
2023/06/03 07:41:44;;;;;;;6.15;1.90;;;;;;;15.17;40.38;101783.38;4974664;28;20055;-59
2023/06/03 07:44:13;;;;;;;9.13;1.92;;;;;;;14.75;40.72;101793.16;4973414;28;20486;-60
2023/06/03 07:46:44;;;;;;;12.65;2.05;;;;;;;14.24;41.58;101788.63;4972665;28;20101;-60
2023/06/03 07:49:13;;;;;;;3.42;1.73;;;;;;;13.76;42.19;101789.94;4972410;28;20043;-60
2023/06/03 07:51:43;;;;;;;8.15;1.90;;;;;;;14.02;40.34;101790.84;4972643;28;20097;-61
2023/06/03 07:54:10;;;;;;;5.38;1.55;;;;;;;13.62;40.93;101793.16;4985155;28;20059;-61
2023/06/03 07:56:37;;;;;;;14.90;2.03;;;;;;;14.06;41.03;101791.38;4993504;28;20054;-60
2023/06/03 07:59:04;;;;;;;12.85;2.58;;;;;;;15.07;40.42;101780.78;4991388;28;20494;-60
2023/06/03 08:01:32;;;;;;;7.95;2.50;;;;;;;15.77;42.67;101774.19;4992264;28;20050;-61
2023/06/03 08:04:00;;;;;;;8.43;1.85;;;;;;;15.85;38.40;101777.75;4992605;28;20113;-59
2023/06/03 08:06:27;;;;;;;6.18;1.70;;;;;;;16.04;38.08;101776.53;5023527;28;20417;-59
2023/06/03 08:08:56;;;;;;;7.20;2.00;;;;;;;15.22;38.42;101783.69;5031289;28;20494;-60
2023/06/03 08:11:23;;;;;;;4.38;1.50;;;;;;;14.43;39.17;101784.88;5031353;28;20041;-59
2023/06/03 08:13:49;;;;;;;3.65;1.70;;;;;;;15.06;38.94;101780.97;5032133;28;20049;-61
2023/06/03 08:16:18;;;;;;;6.22;1.73;;;;;;;15.09;39.45;101777.94;5032353;28;20523;-60
2023/06/03 08:18:47;;;;;;;7.30;1.90;;;;;;;15.20;38.42;101770.38;5032486;28;20049;-60
2023/06/03 08:21:14;;;;;;;12.93;2.00;;;;;;;15.18;38.17;101785.03;5032541;28;20057;-60
2023/06/03 08:23:41;;;;;;;5.10;1.50;;;;;;;14.89;38.78;101777.38;5032602;28;20445;-60
2023/06/03 08:26:10;;;;;;;4.63;1.60;;;;;;;14.97;38.25;101780.94;5031196;28;20052;-61
2023/06/03 08:28:38;;;;;;;7.18;2.00;;;;;;;14.88;38.51;101775.69;5030188;28;20056;-60
2023/06/03 08:31:05;;;;;;;3.97;1.33;;;;;;;15.79;36.42;101785.69;5032443;28;20107;-60
2023/06/03 08:33:32;;;;;;;6.13;1.70;;;;;;;15.66;37.25;101787.03;5031299;28;20077;-61
2023/06/03 08:35:59;;;;;;;5.50;1.90;;;;;;;16.76;37.12;101773.88;5032232;28;20045;-61
2023/06/03 08:38:26;;;;;;;8.35;1.70;;;;;;;17.97;36.60;101781.41;5031659;28;20106;-60
2023/06/03 08:40:53;;;;;;;7.25;2.03;;;;;;;18.45;34.51;101770.28;5032162;28;20057;-60
2023/06/03 08:43:22;;;;;;;5.32;1.45;;;;;;;18.00;34.18;101769.34;5029881;28;20045;-66
2023/06/03 08:46:00;;;;;;;9.02;1.83;;;;;;;19.16;32.74;101776.88;5032003;28;20085;-59
2023/06/03 08:49:04;;;;;;;3.95;1.45;;;;;;;18.68;32.08;101783.75;5030270;28;20129;-59
2023/06/03 08:51:39;;;;;;;8.38;1.55;;;;;;;18.99;34.12;101773.53;5030762;28;20033;-61
2023/06/03 08:54:13;;;;;;;4.82;1.38;;;;;;;19.30;33.69;101782.47;5031974;28;20053;-60
2023/06/03 08:56:45;;;;;;;5.55;1.83;;;;;;;19.57;32.89;101772.72;5032020;28;20405;-61
2023/06/03 08:59:15;;;;;;;;;;;;;;;20.47;30.03;101771.16;5032125;28;20064;-61
2023/06/03 09:01:44;;;;;;;9.60;1.67;;;;;;;19.88;29.97;101767.78;5031087;28;19925;-59
2023/06/03 09:04:13;;;;;;;6.63;1.65;;;;;;;19.02;31.49;101780.47;5031787;28;20442;-60
2023/06/03 09:06:45;;;;;;;11.68;1.60;;;;;;;20.15;32.99;101757.94;5031459;28;20463;-60
2023/06/03 09:09:14;;;;;;;6.95;2.00;;;;;;;20.99;29.19;101759.66;5031317;28;20672;-60
2023/06/03 09:11:42;;;;;;;5.03;1.63;;;;;;;20.03;30.43;101755.94;5031192;28;20117;-60
2023/06/03 09:14:10;;;;;;;3.40;1.50;;;;;;;19.59;29.10;101760.59;5031355;28;20180;-59
2023/06/03 09:16:37;;;;;;;7.38;1.52;;;;;;;19.10;29.61;101757.75;5031191;28;20068;-61
2023/06/03 09:19:04;;;;;;;7.22;2.03;;;;;;;18.02;31.10;101757.25;5031619;28;20050;-59
2023/06/03 09:21:31;;;;;;;6.97;1.63;;;;;;;18.12;31.94;101758.88;5029803;28;20049;-60
2023/06/03 09:23:58;;;;;;;8.52;1.80;;;;;;;18.42;32.87;101754.34;5031641;28;20053;-60
2023/06/03 09:26:25;;;;;;;10.88;1.70;;;;;;;18.96;30.25;101754.88;5030581;28;20129;-60
2023/06/03 09:28:52;;;;;;;6.15;1.70;;;;;;;19.79;29.80;101749.88;5026721;28;20050;-60
2023/06/03 09:31:19;;;;;;;6.00;1.77;;;;;;;19.41;30.89;101744.69;5010421;28;20053;-61
2023/06/03 09:33:46;;;;;;;9.48;1.75;;;;;;;20.14;29.31;101739.06;5011217;28;20041;-60
2023/06/03 09:36:15;;;;;;;4.93;1.88;;;;;;;20.12;29.60;101736.53;5011055;28;20096;-60
2023/06/03 09:38:53;;;;;;;3.50;1.55;;;;;;;19.67;28.73;101738.69;5010593;28;20053;-60
2023/06/03 09:41:27;;;;;;;6.95;1.90;;;;;;;19.35;29.12;101742.78;5010541;28;20116;-62
2023/06/03 09:44:01;;;;;;;2.65;1.52;;;;;;;19.64;28.29;101733.63;5010389;28;20050;-60
2023/06/03 09:46:32;;;;;;;6.47;1.50;;;;;;;19.21;28.37;101743.66;5010478;28;20054;-61
2023/06/03 09:49:14;;;;;;;6.15;1.50;;;;;;;19.34;28.42;101753.81;5011339;28;20058;-61
2023/06/03 09:51:53;;;;;;;8.52;1.30;;;;;;;19.80;28.15;101740.72;5010895;28;20489;-59
2023/06/03 09:54:25;;;;;;;6.60;1.48;;;;;;;19.59;29.81;101737.94;5009473;28;20177;-61
2023/06/03 09:56:52;;;;;;;9.63;1.60;;;;;;;20.57;27.90;101736.22;5009277;28;20049;-60
2023/06/03 09:59:29;;;;;;;8.18;1.30;;;;;;;20.46;27.72;101740.34;5010243;28;20121;-60
2023/06/03 10:01:56;;;;;;;4.22;1.60;;;;;;;22.04;26.59;101738.22;5018261;28;20045;-61
2023/06/03 10:04:46;;;;;;;3.13;1.40;;;;;;;22.68;26.05;101733.91;5030267;28;20075;-62
2023/06/03 10:07:16;;;;;;;4.47;1.70;;;;;;;23.53;25.01;101734.47;5030079;28;20048;-61
2023/06/03 10:09:47;;;;;;;6.57;1.50;;;;;;;23.32;24.25;101737.59;5028934;28;20565;-61
2023/06/03 10:12:14;;;;;;;;;;;;;;;21.68;25.53;101742.22;5031204;28;20485;-60
2023/06/03 10:14:46;;;;;;;13.07;1.70;;;;;;;20.34;27.23;101737.31;5030326;28;19921;-61
2023/06/03 10:17:15;;;;;;;7.40;1.70;;;;;;;20.19;27.15;101731.13;5029420;28;20049;-60
2023/06/03 10:19:43;;;;;;;4.95;1.58;;;;;;;19.76;27.48;101741.28;5029171;28;20505;-60
2023/06/03 10:22:16;;;;;;;5.60;1.52;;;;;;;20.31;26.59;101734.13;5030014;28;20073;-61
2023/06/03 10:24:48;;;;;;;4.97;1.38;;;;;;;19.65;28.09;101729.00;5027915;28;20080;-60
2023/06/03 10:27:16;;;;;;;10.43;2.30;;;;;;;19.20;29.07;101731.09;5029267;28;20048;-61
2023/06/03 10:29:43;;;;;;;4.45;1.73;;;;;;;20.50;27.69;101719.81;5029171;28;20053;-60
2023/06/03 10:32:16;;;;;;;5.32;1.77;;;;;;;20.83;26.64;101728.13;5029352;28;20061;-60
2023/06/03 10:34:44;;;;;;;10.63;2.13;;;;;;;20.18;26.01;101732.19;5034696;28;20103;-59
2023/06/03 10:37:13;;;;;;;5.07;1.65;;;;;;;19.56;26.89;101731.03;5029393;28;20045;-60
2023/06/03 10:39:43;;;;;;;2.97;1.42;;;;;;;18.88;27.33;101735.94;5029107;28;20377;-60
2023/06/03 10:42:12;;;;;;;10.07;1.63;;;;;;;18.87;28.60;101728.81;5030549;28;20454;-60
2023/06/03 10:44:39;;;;;;;5.70;1.75;;;;;;;19.00;27.41;101725.44;5034163;28;20152;-59
2023/06/03 10:47:11;;;;;;;7.30;1.67;;;;;;;19.33;27.02;101719.50;5034430;28;20050;-61
2023/06/03 10:49:56;;;;;;;4.47;1.55;;;;;;;19.67;28.42;101718.78;5033770;28;20132;-60
2023/06/03 10:52:53;;;;;;;7.32;1.45;;;;;;;19.77;27.32;101700.25;5032617;28;20045;-59
2023/06/03 10:55:40;;;;;;;5.88;1.38;;;;;;;20.10;29.74;101703.19;5032705;28;20081;-61
2023/06/03 10:58:25;;;;;;;5.28;1.40;;;;;;;20.43;29.77;101697.16;5034085;28;20049;-60
2023/06/03 11:01:04;;;;;;;6.53;1.40;;;;;;;20.53;27.58;101691.31;5033593;28;20056;-60
2023/06/03 11:03:51;;;;;;;3.70;1.27;;;;;;;18.87;27.48;101709.78;5032798;28;20049;-60
2023/06/03 11:06:21;;;;;;;5.97;1.73;;;;;;;17.66;28.74;101704.69;5032965;28;20483;-60
2023/06/03 11:09:05;;;;;;;4.70;1.52;;;;;;;16.81;30.12;101700.16;5034129;28;20041;-60
2023/06/03 11:11:40;;;;;;;6.88;1.60;;;;;;;16.58;30.47;101700.97;5032713;28;20045;-60
2023/06/03 11:14:08;;;;;;;7.45;1.40;;;;;;;16.74;30.94;101712.72;5031283;28;20554;-59
2023/06/03 11:16:57;;;;;;;5.47;1.95;;;;;;;17.24;31.56;101706.84;5031489;28;20049;-60
2023/06/03 11:19:51;;;;;;;8.45;1.50;;;;;;;18.22;32.13;101697.00;5032530;28;20049;-59
2023/06/03 11:22:26;;;;;;;6.60;1.20;;;;;;;18.69;31.73;101701.19;5033475;28;20107;-59
2023/06/03 11:24:54;;;;;;;4.55;1.60;;;;;;;18.57;28.92;101703.53;5033564;28;20528;-59
2023/06/03 11:27:20;;;;;;;4.72;1.27;;;;;;;17.20;29.06;101701.94;5033064;28;20072;-60
2023/06/03 11:29:47;;;;;;;3.17;1.23;;;;;;;16.35;30.11;101694.56;5034097;28;20049;-60
2023/06/03 11:32:22;;;;;;;6.03;2.20;;;;;;;17.05;32.74;101688.31;5033978;28;20811;-60
2023/06/03 11:35:30;;;;;;;7.95;1.50;;;;;;;17.43;30.12;101696.56;5033141;28;20128;-60
2023/06/03 11:37:56;;;;;;;13.10;1.50;;;;;;;17.84;30.03;101695.16;5031596;28;20128;-60
2023/06/03 11:40:23;;;;;;;5.22;1.52;;;;;;;17.65;29.18;101698.41;5032099;28;20049;-59